Time;durP1;ratioP1;P1;durP2;ratioP2;P2;SDS_P1;SDS_P2;PMS_P1;PMS_P2;Temp;Humidity;BMP_temperature;BMP_pressure;BME280_temperature;BME280_humidity;BME280_pressure;Samples;Min_cycle;Max_cycle;Signal;HPM_P1;HPM_P2
2023/10/13 00:00:36;;;;;;;7.27;3.60;;;12.70;99.90;;;;;;5054512;28;20477;-67
2023/10/13 00:03:05;;;;;;;6.20;3.73;;;12.70;99.90;;;;;;5051240;28;20491;-67
2023/10/13 00:05:34;;;;;;;6.30;3.50;;;12.70;99.90;;;;;;5052988;28;21016;-67
2023/10/13 00:08:04;;;;;;;4.67;3.37;;;12.70;99.90;;;;;;5050806;28;20469;-67
2023/10/13 00:10:33;;;;;;;3.70;3.20;;;12.70;99.90;;;;;;5051818;28;20474;-68
2023/10/13 00:13:11;;;;;;;6.30;3.57;;;12.80;99.90;;;;;;5047094;28;20474;-67
2023/10/13 00:15:46;;;;;;;5.87;4.17;;;12.80;99.90;;;;;;5049758;28;20507;-67
2023/10/13 00:18:14;;;;;;;7.50;3.73;;;12.80;99.90;;;;;;5047970;28;21088;-67
2023/10/13 00:20:49;;;;;;;6.70;4.27;;;12.80;99.90;;;;;;5049057;28;20578;-68
2023/10/13 00:23:20;;;;;;;8.20;3.87;;;12.80;99.90;;;;;;5048923;28;21357;-67
2023/10/13 00:25:58;;;;;;;7.13;4.00;;;12.80;99.90;;;;;;5049481;28;20482;-67
2023/10/13 00:28:35;;;;;;;8.57;4.50;;;12.80;99.90;;;;;;5053309;28;20473;-67
2023/10/13 00:31:11;;;;;;;8.87;4.10;;;12.80;99.90;;;;;;5052421;28;20495;-67
2023/10/13 00:33:41;;;;;;;6.40;4.27;;;12.80;99.90;;;;;;5048998;28;20630;-67
2023/10/13 00:36:16;;;;;;;6.77;4.83;;;12.80;99.90;;;;;;5048516;28;21276;-67
2023/10/13 00:38:48;;;;;;;5.13;4.03;;;12.80;99.90;;;;;;5051319;28;21007;-67
2023/10/13 00:41:17;;;;;;;8.77;4.93;;;12.80;99.90;;;;;;5045917;28;20835;-67
2023/10/13 00:44:04;;;;;;;8.40;4.90;;;12.90;99.90;;;;;;5050668;28;20494;-67
2023/10/13 00:46:35;;;;;;;6.80;5.10;;;12.90;99.90;;;;;;5049333;28;20577;-67
2023/10/13 00:49:05;;;;;;;8.33;5.10;;;12.90;99.90;;;;;;5047798;28;20474;-67
2023/10/13 00:51:34;;;;;;;10.20;5.63;;;12.90;99.90;;;;;;5048270;28;20484;-67
2023/10/13 00:54:07;;;;;;;10.20;5.83;;;12.90;99.90;;;;;;5047614;28;20498;-67
2023/10/13 00:56:40;;;;;;;9.30;6.20;;;12.90;99.90;;;;;;5045322;28;20500;-67
2023/10/13 00:59:10;;;;;;;9.63;6.13;;;12.90;99.90;;;;;;5050923;28;20466;-67
2023/10/13 01:01:42;;;;;;;12.97;6.90;;;12.90;99.90;;;;;;5049849;28;20950;-67
2023/10/13 01:04:14;;;;;;;9.07;6.70;;;13.00;99.90;;;;;;5050991;28;21113;-66
2023/10/13 01:06:43;;;;;;;10.33;6.13;;;12.90;99.90;;;;;;5051459;28;20524;-66
2023/10/13 01:09:12;;;;;;;11.03;6.20;;;13.00;99.90;;;;;;5052317;28;20541;-66
2023/10/13 01:11:42;;;;;;;13.80;6.53;;;13.00;99.90;;;;;;5053401;28;20486;-66
2023/10/13 01:14:11;;;;;;;12.27;6.77;;;13.00;99.90;;;;;;5048972;28;20573;-66
2023/10/13 01:16:43;;;;;;;12.50;7.33;;;13.00;99.90;;;;;;5051632;28;20838;-66
2023/10/13 01:19:12;;;;;;;12.03;6.50;;;13.00;99.90;;;;;;5050593;28;20462;-66
2023/10/13 01:21:41;;;;;;;12.47;7.43;;;13.00;99.90;;;;;;5052938;28;20478;-66
2023/10/13 01:24:13;;;;;;;13.73;7.67;;;13.00;99.90;;;;;;5048917;28;20525;-66
2023/10/13 01:26:42;;;;;;;14.07;7.63;;;13.00;99.90;;;;;;5049693;28;20747;-66
2023/10/13 01:29:14;;;;;;;14.27;8.10;;;13.00;99.90;;;;;;5050741;28;20466;-66
2023/10/13 01:31:46;;;;;;;13.20;7.83;;;13.10;99.90;;;;;;5050326;28;20765;-66
2023/10/13 01:34:20;;;;;;;14.50;8.93;;;13.10;99.90;;;;;;5049513;28;20497;-69
2023/10/13 01:36:50;;;;;;;16.73;8.47;;;13.10;99.90;;;;;;5051590;28;20485;-66
2023/10/13 01:39:20;;;;;;;11.80;8.40;;;13.10;99.90;;;;;;5049773;28;20473;-66
2023/10/13 01:41:55;;;;;;;13.87;9.17;;;13.10;99.90;;;;;;5052762;28;22657;-66
2023/10/13 01:44:23;;;;;;;13.30;9.23;;;13.10;99.90;;;;;;5052414;28;21065;-66
2023/10/13 01:46:51;;;;;;;15.00;9.60;;;13.10;99.90;;;;;;5048738;28;21092;-66
2023/10/13 01:49:21;;;;;;;13.40;9.33;;;13.20;99.90;;;;;;5051525;28;20564;-66
2023/10/13 01:51:49;;;;;;;14.63;9.90;;;13.20;99.90;;;;;;5050493;28;20913;-66
2023/10/13 01:54:17;;;;;;;12.57;9.90;;;13.20;99.90;;;;;;5046803;28;20469;-66
2023/10/13 01:56:46;;;;;;;14.83;10.27;;;13.20;99.90;;;;;;5049762;28;20486;-66
2023/10/13 01:59:15;;;;;;;19.10;9.53;;;13.30;99.90;;;;;;5050403;28;20935;-66
2023/10/13 02:01:43;;;;;;;15.10;10.40;;;13.30;99.90;;;;;;5050383;28;20580;-66
2023/10/13 02:04:10;;;;;;;16.93;9.37;;;13.30;99.90;;;;;;5047358;28;20496;-66
2023/10/13 02:06:39;;;;;;;17.80;10.63;;;13.30;99.90;;;;;;5053112;28;20474;-66
2023/10/13 02:09:12;;;;;;;23.20;10.63;;;13.30;99.90;;;;;;5051589;28;20498;-66
2023/10/13 02:11:42;;;;;;;17.37;9.70;;;13.30;99.90;;;;;;5050717;28;21032;-66
2023/10/13 02:14:11;;;;;;;17.70;11.00;;;13.30;99.90;;;;;;5049867;28;20576;-66
2023/10/13 02:16:40;;;;;;;15.60;9.90;;;13.30;99.90;;;;;;5050048;28;21036;-66
2023/10/13 02:19:08;;;;;;;14.43;9.80;;;13.30;99.90;;;;;;5049065;28;20922;-66
2023/10/13 02:21:40;;;;;;;16.77;10.70;;;13.30;99.90;;;;;;5050672;28;20532;-66
2023/10/13 02:24:13;;;;;;;20.10;11.83;;;13.30;99.90;;;;;;5051633;28;20497;-65
2023/10/13 02:26:41;;;;;;;17.00;10.27;;;13.40;99.90;;;;;;5049314;28;20496;-66
2023/10/13 02:29:10;;;;;;;16.17;10.27;;;13.30;99.90;;;;;;5048132;28;20474;-66
2023/10/13 02:31:40;;;;;;;19.20;11.13;;;13.30;99.90;;;;;;5048875;28;20863;-66
2023/10/13 02:34:08;;;;;;;17.93;12.47;;;13.40;99.90;;;;;;5047129;28;20895;-66
2023/10/13 02:36:46;;;;;;;18.63;11.40;;;13.40;99.90;;;;;;5049556;28;20568;-66
2023/10/13 02:39:16;;;;;;;16.10;10.70;;;13.40;99.90;;;;;;5048914;28;20469;-66
2023/10/13 02:41:48;;;;;;;16.50;11.10;;;13.40;99.90;;;;;;5043903;28;21032;-66
2023/10/13 02:44:26;;;;;;;17.63;11.07;;;13.40;99.90;;;;;;5049656;28;20521;-66
2023/10/13 02:46:55;;;;;;;16.50;10.90;;;13.40;99.90;;;;;;5046709;28;20924;-66
2023/10/13 02:49:25;;;;;;;21.67;12.97;;;13.40;99.90;;;;;;5048798;28;20953;-66
2023/10/13 02:51:55;;;;;;;18.17;10.93;;;13.40;99.90;;;;;;5046274;28;20955;-66
2023/10/13 02:54:30;;;;;;;20.43;12.50;;;13.40;99.90;;;;;;5046569;28;20945;-66
2023/10/13 02:57:00;;;;;;;20.27;12.50;;;13.50;99.90;;;;;;5047501;28;20493;-66
2023/10/13 02:59:34;;;;;;;18.10;11.17;;;13.40;99.90;;;;;;5045237;28;20997;-66
2023/10/13 03:02:17;;;;;;;16.43;11.10;;;13.40;99.90;;;;;;5048869;28;20469;-67
2023/10/13 03:04:45;;;;;;;18.10;11.67;;;13.50;99.90;;;;;;5048904;28;20493;-66
2023/10/13 03:07:22;;;;;;;16.23;10.87;;;13.40;99.90;;;;;;5047698;28;20552;-66
2023/10/13 03:09:52;;;;;;;18.03;11.60;;;13.50;99.90;;;;;;5050680;28;20562;-66
2023/10/13 03:12:21;;;;;;;15.63;11.90;;;13.50;99.90;;;;;;5047672;28;20556;-66
2023/10/13 03:14:48;;;;;;;19.17;11.07;;;13.50;99.90;;;;;;5047385;28;20544;-66
2023/10/13 03:17:22;;;;;;;17.23;11.40;;;13.50;99.90;;;;;;5049272;28;21025;-66
2023/10/13 03:19:51;;;;;;;19.50;12.50;;;13.50;99.90;;;;;;5047797;28;20998;-66
2023/10/13 03:22:30;;;;;;;22.00;12.80;;;13.50;99.90;;;;;;5047966;28;20558;-66
2023/10/13 03:25:04;;;;;;;16.43;10.90;;;13.60;99.90;;;;;;5049777;28;20495;-66
2023/10/13 03:27:41;;;;;;;20.87;11.80;;;13.60;99.90;;;;;;5050035;28;20535;-66
2023/10/13 03:30:14;;;;;;;17.37;11.60;;;13.60;99.90;;;;;;5049177;28;20473;-66
2023/10/13 03:32:46;;;;;;;17.60;11.73;;;13.60;99.90;;;;;;5053131;28;20553;-66
2023/10/13 03:35:23;;;;;;;18.00;12.73;;;13.60;99.90;;;;;;5051122;28;20570;-66
2023/10/13 03:37:51;;;;;;;17.33;11.07;;;13.60;99.90;;;;;;5052177;28;21081;-66
2023/10/13 03:43:13;;;;;;;16.57;12.27;;;13.70;99.90;;;;;;5126181;27;20568;-66
2023/10/13 03:45:43;;;;;;;17.50;12.27;;;13.70;99.90;;;;;;5082781;27;20489;-66
2023/10/13 03:48:27;;;;;;;17.60;11.47;;;13.70;99.90;;;;;;5072058;28;20477;-66
2023/10/13 03:51:06;;;;;;;14.90;10.50;;;13.70;99.90;;;;;;5074289;28;20568;-66
2023/10/13 03:53:36;;;;;;;12.30;10.30;;;13.70;99.90;;;;;;5075777;28;20500;-66
2023/10/13 03:56:12;;;;;;;14.47;10.43;;;13.70;99.90;;;;;;5069267;28;20479;-69
2023/10/13 03:58:45;;;;;;;13.43;10.27;;;13.70;99.90;;;;;;5073783;28;20477;-67
2023/10/13 04:01:16;;;;;;;14.23;10.20;;;13.70;99.90;;;;;;5074397;28;20921;-67
2023/10/13 04:04:02;;;;;;;11.80;9.03;;;13.80;99.90;;;;;;5074208;28;20484;-67
2023/10/13 04:17:45;;;;;;;12.83;9.93;;;13.80;99.90;;;;;;5066160;28;21798;-67
2023/10/13 04:20:14;;;;;;;11.30;9.60;;;13.80;99.90;;;;;;5072918;28;20789;-67
2023/10/13 04:25:38;;;;;;;12.17;9.90;;;13.90;99.90;;;;;;5071420;28;20539;-67
2023/10/13 04:28:34;;;;;;;14.40;11.43;;;13.90;99.90;;;;;;5068122;28;20481;-67
2023/10/13 04:31:12;;;;;;;11.37;10.17;;;13.90;99.90;;;;;;5072535;28;20483;-67
2023/10/13 04:33:51;;;;;;;12.37;10.00;;;14.00;99.90;;;;;;5064644;28;20491;-67
2023/10/13 04:36:36;;;;;;;12.83;10.20;;;14.00;99.90;;;;;;5068642;27;20491;-67
2023/10/13 04:39:09;;;;;;;13.07;10.80;;;14.00;99.90;;;;;;5072148;28;20474;-67
2023/10/13 04:41:39;;;;;;;13.93;10.90;;;14.10;99.90;;;;;;5070685;28;20524;-67
2023/10/13 04:47:21;;;;;;;13.73;10.33;;;14.10;99.90;;;;;;4986359;28;20575;-67
2023/10/13 04:50:00;;;;;;;15.27;10.23;;;14.10;99.90;;;;;;5054912;28;20465;-67
2023/10/13 04:55:36;;;;;;;14.10;10.50;;;14.20;99.90;;;;;;5050117;28;20917;-67
2023/10/13 04:58:27;;;;;;;15.50;11.30;;;14.20;99.90;;;;;;5055391;28;20473;-67
2023/10/13 05:01:49;;;;;;;17.03;12.73;;;14.20;99.90;;;;;;5057841;28;20481;-67
2023/10/13 05:04:22;;;;;;;16.50;12.90;;;14.20;99.90;;;;;;5054315;28;20516;-67
2023/10/13 05:48:48;;;;;;;31.77;21.30;;;15.00;99.90;;;;;;5055844;28;20546;-69
2023/10/13 05:51:43;;;;;;;34.03;22.63;;;15.00;99.90;;;;;;5052671;28;20553;-66
2023/10/13 06:30:19;;;;;;;29.10;23.60;;;15.70;99.90;;;;;;5056328;28;20462;-70
2023/10/13 06:32:47;;;;;;;28.87;21.90;;;15.70;99.90;;;;;;5052332;28;20630;-69
2023/10/13 06:35:22;;;;;;;26.13;22.53;;;15.80;99.90;;;;;;5052000;28;20499;-66
2023/10/13 06:37:51;;;;;;;25.50;22.17;;;15.80;99.90;;;;;;5051317;28;21009;-66
2023/10/13 06:40:33;;;;;;;27.93;22.60;;;15.80;99.90;;;;;;5054501;28;20472;-66
2023/10/13 06:43:17;;;;;;;24.73;22.03;;;15.80;99.90;;;;;;5053404;28;20568;-66
2023/10/13 06:45:50;;;;;;;30.57;23.70;;;15.80;99.90;;;;;;5053257;28;20524;-67
2023/10/13 06:48:20;;;;;;;29.33;23.93;;;15.90;99.90;;;;;;5051638;28;20799;-67
2023/10/13 06:50:52;;;;;;;31.50;23.27;;;15.90;99.90;;;;;;5051199;28;20477;-67
2023/10/13 06:53:21;;;;;;;32.40;23.70;;;15.90;99.90;;;;;;5052989;28;20493;-66
2023/10/13 06:55:52;;;;;;;28.40;22.20;;;15.90;99.90;;;;;;5051160;28;20489;-66
2023/10/13 06:58:24;;;;;;;26.77;22.97;;;15.90;99.90;;;;;;5049517;28;20613;-67
2023/10/13 07:00:55;;;;;;;30.00;23.17;;;16.00;99.90;;;;;;5050858;28;20473;-66
2023/10/13 07:03:24;;;;;;;32.40;25.53;;;16.00;99.90;;;;;;5053072;28;20836;-66
2023/10/13 07:05:53;;;;;;;31.23;25.10;;;16.10;99.90;;;;;;5057055;28;20538;-66
2023/10/13 07:08:21;;;;;;;25.73;22.97;;;16.10;99.90;;;;;;5059475;28;20474;-67
2023/10/13 07:10:58;;;;;;;26.53;22.30;;;16.10;99.90;;;;;;5054022;28;21119;-67
2023/10/13 07:13:28;;;;;;;26.63;22.47;;;16.10;99.90;;;;;;5053360;28;20516;-67
2023/10/13 07:16:01;;;;;;;26.77;22.70;;;16.10;99.90;;;;;;5050471;28;20592;-67
2023/10/13 07:18:49;;;;;;;28.07;22.90;;;16.10;99.90;;;;;;5053469;28;20469;-67
2023/10/13 07:21:24;;;;;;;25.63;22.37;;;16.10;99.90;;;;;;5052815;28;20911;-67
2023/10/13 07:24:08;;;;;;;25.33;22.43;;;16.10;99.90;;;;;;5052121;28;20504;-67
2023/10/13 07:26:42;;;;;;;27.40;21.67;;;16.20;99.90;;;;;;5049782;28;20499;-67
2023/10/13 07:29:13;;;;;;;25.27;22.00;;;16.20;99.90;;;;;;5049148;28;20892;-66
2023/10/13 07:31:44;;;;;;;24.10;21.30;;;16.20;99.90;;;;;;5053900;28;21036;-66
2023/10/13 07:34:24;;;;;;;26.50;21.73;;;16.20;99.90;;;;;;5052624;28;22279;-67
2023/10/13 07:36:59;;;;;;;26.33;20.97;;;16.20;99.90;;;;;;5057727;28;20530;-66
2023/10/13 07:39:33;;;;;;;23.83;21.33;;;16.20;99.90;;;;;;5055476;28;20527;-66
2023/10/13 07:42:07;;;;;;;26.53;21.90;;;16.20;99.90;;;;;;5057048;28;21027;-66
2023/10/13 07:44:45;;;;;;;23.57;21.07;;;16.20;99.90;;;;;;5058348;28;20511;-65
2023/10/13 07:47:15;;;;;;;24.60;21.37;;;16.20;99.90;;;;;;5053627;28;20917;-68
2023/10/13 07:49:45;;;;;;;23.03;20.63;;;16.20;99.90;;;;;;5056646;28;20477;-66
2023/10/13 07:52:36;;;;;;;25.93;21.07;;;16.30;99.90;;;;;;5055242;28;20465;-65
2023/10/13 07:55:19;;;;;;;23.20;20.10;;;16.30;99.90;;;;;;5054691;28;20856;-66
2023/10/13 07:57:54;;;;;;;20.93;18.83;;;16.30;99.90;;;;;;5055052;28;20480;-66
2023/10/13 08:00:46;;;;;;;25.03;21.00;;;16.20;99.90;;;;;;5054780;28;20469;-66
2023/10/13 08:03:35;;;;;;;25.77;21.77;;;16.20;99.90;;;;;;5056767;28;20503;-66
2023/10/13 08:06:06;;;;;;;22.60;19.17;;;16.20;99.90;;;;;;5054141;28;20488;-66
2023/10/13 08:08:43;;;;;;;22.80;20.03;;;16.20;99.90;;;;;;5055565;28;20478;-66
2023/10/13 08:11:24;;;;;;;22.50;18.43;;;16.20;99.90;;;;;;5060020;28;20969;-67
2023/10/13 08:13:56;;;;;;;22.70;18.60;;;16.20;99.90;;;;;;5055820;28;20501;-67
2023/10/13 08:16:52;;;;;;;19.63;17.13;;;16.20;99.90;;;;;;5057366;28;20477;-66
2023/10/13 08:19:26;;;;;;;17.40;15.60;;;16.20;99.90;;;;;;5057032;28;21687;-66
2023/10/13 08:21:58;;;;;;;16.70;14.90;;;16.20;99.90;;;;;;5053204;28;20924;-66
2023/10/13 08:24:29;;;;;;;17.03;15.33;;;16.20;99.90;;;;;;5053324;28;20500;-67
2023/10/13 08:32:44;;;;;;;15.93;14.43;;;16.30;99.90;;;;;;5050209;28;20582;-66
2023/10/13 08:35:25;;;;;;;15.13;13.63;;;16.30;99.90;;;;;;5057753;28;20527;-66
2023/10/13 08:38:13;;;;;;;14.57;13.17;;;16.30;99.90;;;;;;5055529;28;21053;-67
2023/10/13 08:43:50;;;;;;;15.57;13.97;;;16.30;99.90;;;;;;5057928;28;20515;-67
2023/10/13 08:46:28;;;;;;;15.03;13.23;;;16.20;99.90;;;;;;5062469;28;20558;-66
2023/10/13 08:49:15;;;;;;;14.87;11.70;;;16.20;99.90;;;;;;5057419;28;20741;-65
2023/10/13 08:51:44;;;;;;;12.83;11.53;;;16.20;99.90;;;;;;5056115;28;20470;-68
2023/10/13 08:54:33;;;;;;;13.10;11.80;;;16.20;99.90;;;;;;5056754;28;21029;-68
2023/10/13 08:57:19;;;;;;;12.67;11.47;;;16.20;99.90;;;;;;5060220;28;20470;-68
2023/10/13 08:59:53;;;;;;;13.17;11.80;;;16.20;99.90;;;;;;5058652;28;20544;-68
2023/10/13 09:02:59;;;;;;;12.17;10.93;;;16.20;99.90;;;;;;5059438;28;20486;-67
2023/10/13 09:07:55;;;;;;;11.10;9.90;;;16.20;99.90;;;;;;5057989;28;20556;-67
2023/10/13 09:10:32;;;;;;;11.17;10.13;;;16.20;99.90;;;;;;5058220;28;21041;-67
2023/10/13 09:13:11;;;;;;;9.33;8.53;;;16.20;99.90;;;;;;5057670;28;20469;-67
2023/10/13 09:15:59;;;;;;;9.37;8.47;;;16.20;99.90;;;;;;5058069;28;20485;-67
2023/10/13 09:21:29;;;;;;;8.03;7.30;;;16.30;99.90;;;;;;5060242;28;20489;-68
2023/10/13 09:26:39;;;;;;;9.10;8.20;;;16.40;99.90;;;;;;5058978;28;20860;-68
2023/10/13 09:29:17;;;;;;;7.73;7.03;;;16.40;99.90;;;;;;5058610;28;20479;-65
2023/10/13 09:31:48;;;;;;;8.57;7.77;;;16.50;99.90;;;;;;5053681;28;20773;-67
2023/10/13 09:34:29;;;;;;;9.50;8.57;;;16.50;99.90;;;;;;5052998;28;20501;-67
2023/10/13 09:36:59;;;;;;;10.20;8.10;;;16.60;99.90;;;;;;5057025;28;20465;-67
2023/10/13 09:39:34;;;;;;;8.47;7.67;;;16.60;99.90;;;;;;5058508;28;20497;-69
2023/10/13 09:42:03;;;;;;;9.20;8.17;;;16.70;99.90;;;;;;5059892;28;20495;-67
2023/10/13 09:44:31;;;;;;;8.00;7.30;;;16.70;99.90;;;;;;5056776;28;20493;-67
2023/10/13 09:47:07;;;;;;;8.27;7.47;;;16.70;99.90;;;;;;5059461;28;20674;-67
2023/10/13 09:49:48;;;;;;;8.87;8.07;;;16.80;99.90;;;;;;5059894;28;20995;-67
2023/10/13 09:52:25;;;;;;;8.07;7.33;;;16.80;99.90;;;;;;5059472;28;20986;-67
2023/10/13 09:55:08;;;;;;;9.63;7.60;;;16.80;99.90;;;;;;5055644;28;20511;-68
2023/10/13 09:57:44;;;;;;;8.20;7.50;;;16.90;99.90;;;;;;5057630;28;20466;-67
2023/10/13 10:03:14;;;;;;;8.47;7.60;;;16.80;99.90;;;;;;5055081;28;21201;-67
2023/10/13 10:05:49;;;;;;;8.07;7.23;;;16.90;99.90;;;;;;5060173;28;20513;-67
2023/10/13 10:08:33;;;;;;;8.23;7.40;;;16.90;99.90;;;;;;5059115;28;20469;-68
2023/10/13 10:11:23;;;;;;;9.93;7.03;;;16.90;99.90;;;;;;5055897;28;20474;-67
2023/10/13 10:13:58;;;;;;;7.27;6.67;;;16.90;99.90;;;;;;5055208;28;20786;-67
2023/10/13 10:16:38;;;;;;;10.37;7.67;;;16.90;99.90;;;;;;5060040;28;20479;-68
2023/10/13 10:19:07;;;;;;;7.73;6.77;;;16.90;99.90;;;;;;5059288;28;20825;-67
2023/10/13 10:21:36;;;;;;;8.07;7.17;;;16.90;99.90;;;;;;5057883;28;20533;-67
2023/10/13 10:24:23;;;;;;;8.00;7.20;;;16.90;99.90;;;;;;5063563;28;20752;-67
2023/10/13 10:26:52;;;;;;;9.53;7.33;;;16.90;99.90;;;;;;5061122;28;20465;-67
2023/10/13 10:29:20;;;;;;;8.87;7.00;;;16.90;99.90;;;;;;5055279;28;20484;-69
2023/10/13 10:31:50;;;;;;;8.80;7.20;;;16.90;99.90;;;;;;5055314;28;20891;-67
2023/10/13 10:34:19;;;;;;;9.63;6.80;;;16.90;99.90;;;;;;5056287;28;20486;-68
2023/10/13 10:36:51;;;;;;;9.80;7.40;;;16.90;99.90;;;;;;5058519;28;20546;-68
2023/10/13 10:39:21;;;;;;;8.60;6.90;;;17.00;99.90;;;;;;5058369;28;20477;-68
2023/10/13 10:41:52;;;;;;;7.33;6.63;;;17.00;99.90;;;;;;5057888;28;20701;-68
2023/10/13 10:44:33;;;;;;;8.73;7.17;;;17.10;99.90;;;;;;5055414;28;20851;-67
2023/10/13 10:47:19;;;;;;;10.80;6.87;;;17.10;99.90;;;;;;5056842;28;20468;-67
2023/10/13 10:49:48;;;;;;;7.77;7.03;;;17.20;99.90;;;;;;5055902;28;20465;-67
2023/10/13 10:52:21;;;;;;;9.67;7.27;;;17.20;99.90;;;;;;5057701;28;20469;-67
2023/10/13 10:55:00;;;;;;;10.30;6.77;;;17.30;99.90;;;;;;5053416;28;20482;-68
2023/10/13 10:57:36;;;;;;;8.53;6.80;;;17.40;99.90;;;;;;5056589;28;20472;-68
2023/10/13 11:00:14;;;;;;;8.73;6.50;;;17.40;99.90;;;;;;5056012;28;20823;-68
2023/10/13 11:02:42;;;;;;;10.20;7.90;;;17.40;99.90;;;;;;5058849;28;20576;-67
2023/10/13 11:05:10;;;;;;;7.80;6.93;;;17.50;99.90;;;;;;5056999;28;20586;-67
2023/10/13 11:07:49;;;;;;;8.47;6.97;;;17.50;99.90;;;;;;5056109;28;20994;-67
2023/10/13 11:10:26;;;;;;;9.47;7.43;;;17.50;99.90;;;;;;5058567;28;20922;-67
2023/10/13 11:12:56;;;;;;;9.13;7.30;;;17.60;99.90;;;;;;5055649;28;20469;-68
2023/10/13 11:15:33;;;;;;;9.43;7.23;;;17.60;99.90;;;;;;5055287;28;20580;-67
2023/10/13 11:18:05;;;;;;;10.70;7.67;;;17.70;99.90;;;;;;5054994;28;20469;-68
2023/10/13 11:20:43;;;;;;;8.00;7.20;;;17.80;99.90;;;;;;5060405;28;21068;-67
2023/10/13 11:23:12;;;;;;;16.13;8.10;;;17.80;99.90;;;;;;5061341;28;20473;-68
2023/10/13 11:25:44;;;;;;;11.30;8.47;;;17.90;99.90;;;;;;5059807;28;20495;-68
2023/10/13 11:28:19;;;;;;;8.80;7.93;;;17.90;99.90;;;;;;5059100;28;20828;-67
2023/10/13 11:30:50;;;;;;;9.20;8.00;;;18.00;99.90;;;;;;5059194;28;20484;-67
2023/10/13 11:33:23;;;;;;;8.97;8.07;;;18.10;99.90;;;;;;5058277;28;20497;-67
2023/10/13 11:35:56;;;;;;;11.17;8.03;;;18.20;99.90;;;;;;5054973;28;20908;-67
2023/10/13 11:38:26;;;;;;;10.53;8.70;;;18.20;99.90;;;;;;5054973;28;20465;-67
2023/10/13 11:41:14;;;;;;;9.70;8.40;;;18.30;99.90;;;;;;5054727;28;20473;-67
2023/10/13 11:44:06;;;;;;;8.90;8.03;;;18.30;99.90;;;;;;5055053;28;20498;-68
2023/10/13 11:49:31;;;;;;;8.33;7.33;;;18.50;99.90;;;;;;5059881;28;20538;-67
2023/10/13 11:52:10;;;;;;;10.20;7.23;;;18.60;99.90;;;;;;5055651;28;20572;-69
2023/10/13 11:54:41;;;;;;;8.50;7.70;;;18.60;99.90;;;;;;5055935;28;20488;-70
2023/10/13 11:57:11;;;;;;;8.33;7.50;;;18.70;99.90;;;;;;5054652;28;20905;-68
2023/10/13 11:59:52;;;;;;;11.53;7.50;;;18.70;99.90;;;;;;5053256;28;21161;-68
2023/10/13 12:05:16;;;;;;;7.60;6.40;;;18.90;99.90;;;;;;5060830;28;21019;-67
2023/10/13 12:07:49;;;;;;;8.70;7.10;;;19.00;99.90;;;;;;5062123;28;20950;-68
2023/10/13 12:10:32;;;;;;;9.73;7.60;;;19.00;99.90;;;;;;5063697;28;20973;-67
2023/10/13 12:13:10;;;;;;;9.43;7.13;;;19.10;99.90;;;;;;5058793;28;21051;-68
2023/10/13 12:15:48;;;;;;;9.90;7.00;;;19.20;99.90;;;;;;5061543;28;20485;-68
2023/10/13 12:18:19;;;;;;;7.63;6.43;;;19.20;99.90;;;;;;5059717;28;20474;-67
2023/10/13 12:20:47;;;;;;;8.13;6.40;;;19.30;99.90;;;;;;5061550;28;20806;-68
2023/10/13 12:23:17;;;;;;;10.17;7.00;;;19.30;99.90;;;;;;5060729;28;20496;-67
2023/10/13 12:25:54;;;;;;;9.53;6.90;;;19.30;99.90;;;;;;5062139;28;20834;-68
2023/10/13 12:28:26;;;;;;;9.83;6.37;;;19.40;99.90;;;;;;5060750;28;20473;-68
2023/10/13 12:30:57;;;;;;;8.97;6.10;;;19.40;99.90;;;;;;5058503;28;20515;-69
2023/10/13 12:33:26;;;;;;;8.27;6.80;;;19.40;99.90;;;;;;5061638;28;20839;-67
2023/10/13 12:36:06;;;;;;;7.30;6.57;;;19.40;99.90;;;;;;5057209;28;20660;-68
2023/10/13 12:38:50;;;;;;;9.73;6.20;;;19.40;99.90;;;;;;5060585;28;20505;-69
2023/10/13 12:52:26;;;;;;;11.33;8.47;;;19.60;99.90;;;;;;5057325;28;20477;-68
2023/10/13 12:55:06;;;;;;;8.50;6.90;;;19.60;99.90;;;;;;5055429;28;20496;-68
2023/10/13 12:57:42;;;;;;;8.40;7.30;;;19.60;99.90;;;;;;5060025;28;20477;-68
2023/10/13 13:00:21;;;;;;;12.80;5.87;;;19.70;99.90;;;;;;5059016;28;20837;-67
2023/10/13 13:02:52;;;;;;;10.90;6.60;;;19.80;99.90;;;;;;5058842;28;20832;-67
2023/10/13 13:05:22;;;;;;;11.60;7.53;;;19.80;99.90;;;;;;5059951;28;20485;-67
2023/10/13 13:07:53;;;;;;;12.03;7.40;;;19.80;99.90;;;;;;5060192;28;20474;-68
2023/10/13 13:10:34;;;;;;;10.50;6.80;;;19.90;99.90;;;;;;5058510;28;20466;-68
2023/10/13 13:13:07;;;;;;;8.70;6.40;;;19.90;99.90;;;;;;5060777;28;20557;-67
2023/10/13 13:15:36;;;;;;;8.97;6.43;;;19.90;99.90;;;;;;5057845;28;20492;-67
2023/10/13 13:18:11;;;;;;;10.40;7.47;;;19.90;99.90;;;;;;5059580;28;20465;-67
2023/10/13 13:20:52;;;;;;;12.37;7.70;;;19.90;99.90;;;;;;5057636;28;20465;-68
2023/10/13 13:23:21;;;;;;;7.43;6.73;;;19.90;99.90;;;;;;5061465;28;20488;-68
2023/10/13 13:25:49;;;;;;;7.67;6.93;;;19.80;99.90;;;;;;5060113;28;20598;-68
2023/10/13 13:28:18;;;;;;;8.43;6.20;;;19.80;99.90;;;;;;5059472;28;20477;-68
2023/10/13 13:30:50;;;;;;;12.60;7.40;;;19.90;99.90;;;;;;5057883;28;20990;-69
2023/10/13 13:33:23;;;;;;;8.50;6.77;;;19.90;99.90;;;;;;5061531;28;20497;-67
2023/10/13 13:35:55;;;;;;;7.57;6.33;;;20.10;99.90;;;;;;5056242;28;20588;-67
2023/10/13 13:38:27;;;;;;;7.63;5.70;;;20.30;99.90;;;;;;5063928;28;20469;-67
2023/10/13 13:40:55;;;;;;;14.47;6.60;;;20.40;99.90;;;;;;5060845;28;20782;-67
2023/10/13 13:43:37;;;;;;;8.20;6.20;;;20.60;99.90;;;;;;5059479;28;20493;-67
2023/10/13 13:46:10;;;;;;;8.40;6.33;;;20.60;99.90;;;;;;5058659;28;20482;-67
2023/10/13 13:48:38;;;;;;;9.90;7.13;;;20.60;99.90;;;;;;5058999;28;20482;-68
2023/10/13 13:51:14;;;;;;;8.73;5.90;;;20.50;99.90;;;;;;5058358;28;20505;-65
2023/10/13 13:53:45;;;;;;;10.47;6.63;;;20.40;99.90;;;;;;5061625;28;20492;-66
2023/10/13 13:56:15;;;;;;;9.23;6.27;;;20.40;99.90;;;;;;5059862;28;20500;-66
2023/10/13 13:58:44;;;;;;;9.70;6.53;;;20.40;99.90;;;;;;5063657;28;20465;-66
2023/10/13 14:01:14;;;;;;;9.23;7.10;;;20.30;99.90;;;;;;5058281;28;20465;-66
2023/10/13 14:03:46;;;;;;;9.33;6.50;;;20.30;99.90;;;;;;5061608;28;20524;-66
2023/10/13 14:06:18;;;;;;;6.80;6.20;;;20.30;99.90;;;;;;5062303;28;20490;-66
2023/10/13 14:08:48;;;;;;;10.60;6.83;;;20.20;99.90;;;;;;5062500;28;20588;-66
2023/10/13 14:14:28;;;;;;;10.40;6.67;;;20.10;99.90;;;;;;5015313;28;21162;-66
2023/10/13 14:17:06;;;;;;;8.50;6.50;;;20.10;99.90;;;;;;5057933;28;20529;-66
2023/10/13 14:19:40;;;;;;;9.97;6.50;;;20.10;99.90;;;;;;5060514;28;20522;-66
2023/10/13 14:22:11;;;;;;;8.53;6.73;;;20.10;99.90;;;;;;5061719;28;20480;-67
2023/10/13 14:24:47;;;;;;;8.50;6.90;;;20.10;99.90;;;;;;5060904;28;20477;-67
2023/10/13 14:27:17;;;;;;;11.50;6.57;;;20.10;99.90;;;;;;5058027;28;20468;-66
2023/10/13 14:29:47;;;;;;;9.47;6.70;;;20.10;99.90;;;;;;5059687;28;20472;-67
2023/10/13 14:32:16;;;;;;;7.83;6.50;;;20.00;99.90;;;;;;5059532;28;20473;-66
2023/10/13 14:34:48;;;;;;;9.57;7.20;;;20.00;99.90;;;;;;5057399;28;20498;-67
2023/10/13 14:37:26;;;;;;;11.70;7.27;;;20.00;99.90;;;;;;5058448;28;20496;-67
2023/10/13 14:39:56;;;;;;;10.37;7.40;;;20.00;99.90;;;;;;5056025;28;20885;-68
2023/10/13 14:42:25;;;;;;;7.90;7.17;;;20.00;99.90;;;;;;5061512;28;20518;-66
2023/10/13 14:44:56;;;;;;;12.23;6.80;;;20.00;99.90;;;;;;5059340;28;20497;-67
2023/10/13 14:47:26;;;;;;;10.43;7.23;;;19.90;99.90;;;;;;5061429;28;20465;-67
2023/10/13 14:49:55;;;;;;;11.13;7.20;;;20.00;99.90;;;;;;5063070;28;20503;-67
2023/10/13 14:52:23;;;;;;;8.23;7.20;;;20.00;99.90;;;;;;5062087;28;20477;-67
2023/10/13 14:54:55;;;;;;;10.53;6.80;;;20.00;99.90;;;;;;5060912;28;20517;-67
2023/10/13 14:57:25;;;;;;;7.93;6.63;;;20.10;99.90;;;;;;5061061;28;20840;-67
2023/10/13 14:59:54;;;;;;;11.30;8.20;;;20.00;99.90;;;;;;5061248;28;20473;-66
2023/10/13 15:02:22;;;;;;;10.37;7.00;;;20.00;99.90;;;;;;5058890;28;20545;-68
2023/10/13 15:04:52;;;;;;;9.57;6.43;;;20.00;99.90;;;;;;5058420;28;20513;-66
2023/10/13 15:07:22;;;;;;;10.00;7.47;;;20.00;99.90;;;;;;5062348;28;20472;-67
2023/10/13 15:09:50;;;;;;;11.77;7.30;;;20.00;99.90;;;;;;5062188;28;20545;-68
2023/10/13 15:12:20;;;;;;;8.80;7.30;;;20.00;99.90;;;;;;5062550;28;20472;-67
2023/10/13 15:14:56;;;;;;;10.17;7.30;;;20.00;99.90;;;;;;5058027;28;20484;-66
2023/10/13 15:17:24;;;;;;;9.43;7.50;;;20.00;99.90;;;;;;5057540;28;20586;-66
2023/10/13 15:19:54;;;;;;;10.13;7.30;;;20.10;99.90;;;;;;5064783;28;20520;-65
2023/10/13 15:22:27;;;;;;;16.20;8.30;;;20.00;99.90;;;;;;5055709;28;20955;-66
2023/10/13 15:25:08;;;;;;;13.40;7.80;;;20.00;99.90;;;;;;5054152;28;22074;-66
2023/10/13 15:27:41;;;;;;;9.20;6.60;;;20.00;99.90;;;;;;5059258;28;20473;-65
2023/10/13 15:30:19;;;;;;;13.53;7.50;;;20.10;99.90;;;;;;5057703;28;21045;-66
2023/10/13 15:32:48;;;;;;;12.60;7.10;;;20.10;99.90;;;;;;5055678;28;21024;-66